METAR Data
IDs: Format: Raw Decoded Include TAF

Data at: 0217 UTC 03 Jul 2022

No METAR found for KMYL

KMYL 022320Z 0300/0324 20008KT P6SM SCT150
  FM030300 35008KT P6SM BKN120
  FM030800 VRB06KT P6SM VCSH BKN100
  TEMPO 0309/0313 VRB10KT -SHRA BKN070
  FM031500 16008KT P6SM BKN100
  FM031900 20010KT P6SM VCTS BKN100CB AMD NOT SKED